sensor_id;sensor_type;location;lat;lon;timestamp;temperature;humidity
9965;DHT22;5023;53.554;9.964;2023-07-29T00:04:49;19.50;99.90
9965;DHT22;5023;53.554;9.964;2023-07-29T00:09:51;19.40;99.90
9965;DHT22;5023;53.554;9.964;2023-07-29T00:14:54;19.30;99.90
9965;DHT22;5023;53.554;9.964;2023-07-29T00:19:56;19.20;99.90
9965;DHT22;5023;53.554;9.964;2023-07-29T00:24:58;19.10;99.90
9965;DHT22;5023;53.554;9.964;2023-07-29T00:30:02;19.10;99.90
9965;DHT22;5023;53.554;9.964;2023-07-29T00:40:16;19.10;99.90
9965;DHT22;5023;53.554;9.964;2023-07-29T00:45:23;19.10;99.90
9965;DHT22;5023;53.554;9.964;2023-07-29T00:50:26;19.10;99.90
9965;DHT22;5023;53.554;9.964;2023-07-29T00:55:29;19.20;99.90
9965;DHT22;5023;53.554;9.964;2023-07-29T01:00:32;19.10;99.90
9965;DHT22;5023;53.554;9.964;2023-07-29T01:05:39;19.20;99.90
9965;DHT22;5023;53.554;9.964;2023-07-29T01:10:53;19.20;99.90
9965;DHT22;5023;53.554;9.964;2023-07-29T01:16:01;19.20;99.90
9965;DHT22;5023;53.554;9.964;2023-07-29T01:21:08;19.30;99.90
9965;DHT22;5023;53.554;9.964;2023-07-29T01:26:13;19.30;99.90
9965;DHT22;5023;53.554;9.964;2023-07-29T01:31:20;19.30;99.90
9965;DHT22;5023;53.554;9.964;2023-07-29T01:36:27;19.30;99.90
9965;DHT22;5023;53.554;9.964;2023-07-29T01:41:31;19.30;99.90
9965;DHT22;5023;53.554;9.964;2023-07-29T01:46:34;19.30;99.90
9965;DHT22;5023;53.554;9.964;2023-07-29T01:51:35;19.40;99.90
9965;DHT22;5023;53.554;9.964;2023-07-29T01:56:39;19.30;99.90
9965;DHT22;5023;53.554;9.964;2023-07-29T02:01:41;19.30;99.90
9965;DHT22;5023;53.554;9.964;2023-07-29T02:06:43;19.30;99.90
9965;DHT22;5023;53.554;9.964;2023-07-29T02:11:46;19.20;99.90
9965;DHT22;5023;53.554;9.964;2023-07-29T02:16:48;19.30;99.90
9965;DHT22;5023;53.554;9.964;2023-07-29T02:21:50;19.20;99.90
9965;DHT22;5023;53.554;9.964;2023-07-29T02:26:53;19.20;99.90
9965;DHT22;5023;53.554;9.964;2023-07-29T02:31:55;19.20;99.90
9965;DHT22;5023;53.554;9.964;2023-07-29T02:36:57;19.20;99.90
9965;DHT22;5023;53.554;9.964;2023-07-29T02:42:01;19.10;99.90
9965;DHT22;5023;53.554;9.964;2023-07-29T02:47:03;19.20;99.90
9965;DHT22;5023;53.554;9.964;2023-07-29T02:52:05;19.20;99.90
9965;DHT22;5023;53.554;9.964;2023-07-29T02:57:08;19.10;99.90
9965;DHT22;5023;53.554;9.964;2023-07-29T03:02:10;19.00;99.90
9965;DHT22;5023;53.554;9.964;2023-07-29T03:07:12;19.00;99.90
9965;DHT22;5023;53.554;9.964;2023-07-29T03:12:16;19.00;99.90
9965;DHT22;5023;53.554;9.964;2023-07-29T03:17:18;18.90;99.90
9965;DHT22;5023;53.554;9.964;2023-07-29T03:22:19;19.00;99.90
9965;DHT22;5023;53.554;9.964;2023-07-29T03:27:23;18.90;99.90
9965;DHT22;5023;53.554;9.964;2023-07-29T03:32:24;18.90;99.90
9965;DHT22;5023;53.554;9.964;2023-07-29T03:37:26;18.80;99.90
9965;DHT22;5023;53.554;9.964;2023-07-29T03:42:30;18.90;99.90
9965;DHT22;5023;53.554;9.964;2023-07-29T03:47:32;18.80;99.90
9965;DHT22;5023;53.554;9.964;2023-07-29T03:52:33;18.90;99.90
9965;DHT22;5023;53.554;9.964;2023-07-29T03:57:37;18.80;99.90
9965;DHT22;5023;53.554;9.964;2023-07-29T04:02:38;18.90;99.90
9965;DHT22;5023;53.554;9.964;2023-07-29T04:07:40;18.80;99.90
9965;DHT22;5023;53.554;9.964;2023-07-29T04:12:44;18.80;99.90
9965;DHT22;5023;53.554;9.964;2023-07-29T04:17:46;18.80;99.90
9965;DHT22;5023;53.554;9.964;2023-07-29T04:22:48;18.90;99.90
9965;DHT22;5023;53.554;9.964;2023-07-29T04:27:51;18.80;99.90
9965;DHT22;5023;53.554;9.964;2023-07-29T04:32:53;18.90;99.90
9965;DHT22;5023;53.554;9.964;2023-07-29T04:37:55;18.70;99.90
9965;DHT22;5023;53.554;9.964;2023-07-29T04:43:00;18.90;99.90
9965;DHT22;5023;53.554;9.964;2023-07-29T04:48:02;18.70;99.90
9965;DHT22;5023;53.554;9.964;2023-07-29T04:53:04;18.80;99.90
9965;DHT22;5023;53.554;9.964;2023-07-29T04:58:07;18.80;99.90
9965;DHT22;5023;53.554;9.964;2023-07-29T05:03:09;18.80;99.90
9965;DHT22;5023;53.554;9.964;2023-07-29T05:08:11;18.80;99.90
9965;DHT22;5023;53.554;9.964;2023-07-29T05:13:14;18.80;99.90
9965;DHT22;5023;53.554;9.964;2023-07-29T05:18:17;18.80;99.90
9965;DHT22;5023;53.554;9.964;2023-07-29T05:23:19;18.90;99.90
9965;DHT22;5023;53.554;9.964;2023-07-29T05:28:22;19.00;99.90
9965;DHT22;5023;53.554;9.964;2023-07-29T05:33:24;18.90;99.90
9965;DHT22;5023;53.554;9.964;2023-07-29T05:38:26;19.00;99.90
9965;DHT22;5023;53.554;9.964;2023-07-29T05:43:29;19.00;99.90
9965;DHT22;5023;53.554;9.964;2023-07-29T05:48:31;19.00;99.90
9965;DHT22;5023;53.554;9.964;2023-07-29T05:53:34;19.00;99.90
9965;DHT22;5023;53.554;9.964;2023-07-29T05:58:37;19.20;99.90
9965;DHT22;5023;53.554;9.964;2023-07-29T06:03:39;19.00;99.90
9965;DHT22;5023;53.554;9.964;2023-07-29T06:08:41;19.20;99.90
9965;DHT22;5023;53.554;9.964;2023-07-29T06:13:45;19.20;99.90
9965;DHT22;5023;53.554;9.964;2023-07-29T06:18:47;19.20;99.90
9965;DHT22;5023;53.554;9.964;2023-07-29T06:23:49;19.40;99.90
9965;DHT22;5023;53.554;9.964;2023-07-29T06:28:52;19.40;99.90
9965;DHT22;5023;53.554;9.964;2023-07-29T06:33:54;19.40;99.90
9965;DHT22;5023;53.554;9.964;2023-07-29T06:38:56;19.40;99.90
9965;DHT22;5023;53.554;9.964;2023-07-29T06:43:59;19.40;99.90
9965;DHT22;5023;53.554;9.964;2023-07-29T06:49:01;19.50;99.90
9965;DHT22;5023;53.554;9.964;2023-07-29T06:54:03;19.70;99.90
9965;DHT22;5023;53.554;9.964;2023-07-29T06:59:06;19.70;99.90
9965;DHT22;5023;53.554;9.964;2023-07-29T07:04:08;19.70;99.90
9965;DHT22;5023;53.554;9.964;2023-07-29T07:09:10;19.70;99.90
9965;DHT22;5023;53.554;9.964;2023-07-29T07:14:13;19.70;99.90
9965;DHT22;5023;53.554;9.964;2023-07-29T07:19:15;19.70;99.90
9965;DHT22;5023;53.554;9.964;2023-07-29T07:24:18;19.70;99.90
9965;DHT22;5023;53.554;9.964;2023-07-29T07:29:21;19.80;99.90
9965;DHT22;5023;53.554;9.964;2023-07-29T07:34:23;19.70;99.90
9965;DHT22;5023;53.554;9.964;2023-07-29T07:39:25;19.80;99.90
9965;DHT22;5023;53.554;9.964;2023-07-29T07:44:28;19.90;99.90
9965;DHT22;5023;53.554;9.964;2023-07-29T07:49:30;20.00;99.90
9965;DHT22;5023;53.554;9.964;2023-07-29T07:54:32;19.90;99.90
9965;DHT22;5023;53.554;9.964;2023-07-29T07:59:35;20.10;99.90
9965;DHT22;5023;53.554;9.964;2023-07-29T08:04:37;20.00;99.90
9965;DHT22;5023;53.554;9.964;2023-07-29T08:09:39;20.00;99.90
9965;DHT22;5023;53.554;9.964;2023-07-29T08:14:42;20.00;99.90
9965;DHT22;5023;53.554;9.964;2023-07-29T08:19:44;20.00;99.90
9965;DHT22;5023;53.554;9.964;2023-07-29T08:24:46;20.00;99.90
9965;DHT22;5023;53.554;9.964;2023-07-29T08:29:49;20.10;99.90
9965;DHT22;5023;53.554;9.964;2023-07-29T08:34:51;20.10;99.90
9965;DHT22;5023;53.554;9.964;2023-07-29T08:39:53;20.00;99.90
9965;DHT22;5023;53.554;9.964;2023-07-29T08:44:56;20.00;99.90
9965;DHT22;5023;53.554;9.964;2023-07-29T08:50:04;20.10;99.90
9965;DHT22;5023;53.554;9.964;2023-07-29T08:55:07;20.00;99.90
9965;DHT22;5023;53.554;9.964;2023-07-29T09:00:11;20.00;99.90
9965;DHT22;5023;53.554;9.964;2023-07-29T09:05:14;20.00;99.90
9965;DHT22;5023;53.554;9.964;2023-07-29T09:10:16;20.00;99.90
9965;DHT22;5023;53.554;9.964;2023-07-29T09:15:37;20.20;99.90
9965;DHT22;5023;53.554;9.964;2023-07-29T09:20:39;20.30;99.90
9965;DHT22;5023;53.554;9.964;2023-07-29T09:25:42;20.30;99.90
9965;DHT22;5023;53.554;9.964;2023-07-29T09:30:46;20.50;99.90
9965;DHT22;5023;53.554;9.964;2023-07-29T09:35:48;20.50;99.90
9965;DHT22;5023;53.554;9.964;2023-07-29T09:40:54;20.60;99.90
9965;DHT22;5023;53.554;9.964;2023-07-29T09:46:01;20.70;99.90
9965;DHT22;5023;53.554;9.964;2023-07-29T09:51:10;20.80;99.90
9965;DHT22;5023;53.554;9.964;2023-07-29T09:56:13;20.90;99.90
9965;DHT22;5023;53.554;9.964;2023-07-29T10:01:17;20.90;99.90
9965;DHT22;5023;53.554;9.964;2023-07-29T10:06:19;21.10;99.90
9965;DHT22;5023;53.554;9.964;2023-07-29T10:11:23;21.30;99.90
9965;DHT22;5023;53.554;9.964;2023-07-29T10:16:36;21.50;99.90
9965;DHT22;5023;53.554;9.964;2023-07-29T10:21:39;21.70;99.90
9965;DHT22;5023;53.554;9.964;2023-07-29T10:26:57;21.80;99.90
9965;DHT22;5023;53.554;9.964;2023-07-29T11:01:59;21.80;99.90
9965;DHT22;5023;53.554;9.964;2023-07-29T11:07:23;21.70;99.90
9965;DHT22;5023;53.554;9.964;2023-07-29T11:12:41;21.80;99.90
9965;DHT22;5023;53.554;9.964;2023-07-29T11:17:46;21.80;99.90
9965;DHT22;5023;53.554;9.964;2023-07-29T11:22:49;21.80;99.90
9965;DHT22;5023;53.554;9.964;2023-07-29T11:27:52;21.70;99.90
9965;DHT22;5023;53.554;9.964;2023-07-29T11:32:56;21.60;99.90
9965;DHT22;5023;53.554;9.964;2023-07-29T11:37:59;21.90;99.90
9965;DHT22;5023;53.554;9.964;2023-07-29T11:43:01;22.30;99.90
9965;DHT22;5023;53.554;9.964;2023-07-29T11:48:06;22.90;99.90
9965;DHT22;5023;53.554;9.964;2023-07-29T11:53:08;23.20;99.90
9965;DHT22;5023;53.554;9.964;2023-07-29T11:58:10;23.70;99.90
9965;DHT22;5023;53.554;9.964;2023-07-29T12:03:13;24.20;99.90
9965;DHT22;5023;53.554;9.964;2023-07-29T12:08:17;23.70;99.90
9965;DHT22;5023;53.554;9.964;2023-07-29T12:13:24;23.90;99.90
9965;DHT22;5023;53.554;9.964;2023-07-29T12:18:31;24.10;99.90
9965;DHT22;5023;53.554;9.964;2023-07-29T12:23:33;24.50;99.90
9965;DHT22;5023;53.554;9.964;2023-07-29T12:28:35;24.60;99.90
9965;DHT22;5023;53.554;9.964;2023-07-29T12:33:38;24.90;99.90
9965;DHT22;5023;53.554;9.964;2023-07-29T12:38:43;25.00;99.90
9965;DHT22;5023;53.554;9.964;2023-07-29T12:43:45;25.30;99.90
9965;DHT22;5023;53.554;9.964;2023-07-29T12:48:48;25.10;99.90
9965;DHT22;5023;53.554;9.964;2023-07-29T12:53:50;25.40;99.90
9965;DHT22;5023;53.554;9.964;2023-07-29T12:58:52;25.60;99.90
9965;DHT22;5023;53.554;9.964;2023-07-29T13:03:55;25.90;99.90
9965;DHT22;5023;53.554;9.964;2023-07-29T13:08:57;25.40;99.90
9965;DHT22;5023;53.554;9.964;2023-07-29T13:14:00;25.50;99.90
9965;DHT22;5023;53.554;9.964;2023-07-29T13:19:03;25.60;99.90
9965;DHT22;5023;53.554;9.964;2023-07-29T13:24:05;25.30;99.90
9965;DHT22;5023;53.554;9.964;2023-07-29T13:29:07;25.30;99.90
9965;DHT22;5023;53.554;9.964;2023-07-29T13:34:10;25.20;99.90
9965;DHT22;5023;53.554;9.964;2023-07-29T13:39:12;25.30;99.90
9965;DHT22;5023;53.554;9.964;2023-07-29T13:44:14;25.70;99.90
9965;DHT22;5023;53.554;9.964;2023-07-29T13:49:17;26.30;99.90
9965;DHT22;5023;53.554;9.964;2023-07-29T13:54:19;25.90;99.90
9965;DHT22;5023;53.554;9.964;2023-07-29T13:59:22;25.50;99.90
9965;DHT22;5023;53.554;9.964;2023-07-29T14:04:25;26.30;99.90
9965;DHT22;5023;53.554;9.964;2023-07-29T14:09:27;26.70;99.90
9965;DHT22;5023;53.554;9.964;2023-07-29T14:14:29;26.40;99.90
9965;DHT22;5023;53.554;9.964;2023-07-29T14:19:38;26.00;99.90
9965;DHT22;5023;53.554;9.964;2023-07-29T14:24:40;26.00;99.90
9965;DHT22;5023;53.554;9.964;2023-07-29T14:29:42;26.20;99.90
9965;DHT22;5023;53.554;9.964;2023-07-29T14:34:45;26.80;99.90
9965;DHT22;5023;53.554;9.964;2023-07-29T14:39:47;27.00;99.90
9965;DHT22;5023;53.554;9.964;2023-07-29T14:44:49;26.80;99.90
9965;DHT22;5023;53.554;9.964;2023-07-29T14:49:52;27.20;99.90
9965;DHT22;5023;53.554;9.964;2023-07-29T14:54:54;27.60;99.90
9965;DHT22;5023;53.554;9.964;2023-07-29T14:59:56;27.80;99.90
9965;DHT22;5023;53.554;9.964;2023-07-29T15:05:00;27.80;99.90
9965;DHT22;5023;53.554;9.964;2023-07-29T15:10:02;27.60;99.90
9965;DHT22;5023;53.554;9.964;2023-07-29T15:15:05;27.40;99.90
9965;DHT22;5023;53.554;9.964;2023-07-29T15:20:10;27.20;99.90
9965;DHT22;5023;53.554;9.964;2023-07-29T15:25:12;27.20;99.90
9965;DHT22;5023;53.554;9.964;2023-07-29T15:30:14;27.00;99.90
9965;DHT22;5023;53.554;9.964;2023-07-29T15:35:17;26.60;99.90
9965;DHT22;5023;53.554;9.964;2023-07-29T15:40:19;26.30;99.90
9965;DHT22;5023;53.554;9.964;2023-07-29T15:45:21;26.20;99.90
9965;DHT22;5023;53.554;9.964;2023-07-29T15:50:24;26.00;99.90
9965;DHT22;5023;53.554;9.964;2023-07-29T15:55:26;25.70;99.90
9965;DHT22;5023;53.554;9.964;2023-07-29T16:00:28;25.50;99.90
9965;DHT22;5023;53.554;9.964;2023-07-29T16:05:31;25.40;99.90
9965;DHT22;5023;53.554;9.964;2023-07-29T16:10:33;25.10;99.90
9965;DHT22;5023;53.554;9.964;2023-07-29T16:15:35;24.90;99.90
9965;DHT22;5023;53.554;9.964;2023-07-29T16:20:38;24.30;99.90
9965;DHT22;5023;53.554;9.964;2023-07-29T16:25:41;23.10;99.90
9965;DHT22;5023;53.554;9.964;2023-07-29T16:30:42;22.60;99.90
9965;DHT22;5023;53.554;9.964;2023-07-29T16:35:46;22.20;99.90
9965;DHT22;5023;53.554;9.964;2023-07-29T16:40:48;22.00;99.90
9965;DHT22;5023;53.554;9.964;2023-07-29T16:45:50;21.80;99.90
9965;DHT22;5023;53.554;9.964;2023-07-29T16:50:53;21.60;99.90
9965;DHT22;5023;53.554;9.964;2023-07-29T16:55:55;21.50;99.90
9965;DHT22;5023;53.554;9.964;2023-07-29T17:00:57;21.50;99.90
9965;DHT22;5023;53.554;9.964;2023-07-29T17:06:01;21.50;99.90
9965;DHT22;5023;53.554;9.964;2023-07-29T17:11:02;21.30;99.90
9965;DHT22;5023;53.554;9.964;2023-07-29T17:16:04;21.10;99.90
9965;DHT22;5023;53.554;9.964;2023-07-29T17:21:08;21.00;99.90
9965;DHT22;5023;53.554;9.964;2023-07-29T17:26:09;20.60;99.90
9965;DHT22;5023;53.554;9.964;2023-07-29T17:31:11;20.50;99.90
9965;DHT22;5023;53.554;9.964;2023-07-29T17:36:15;20.40;99.90
9965;DHT22;5023;53.554;9.964;2023-07-29T17:41:17;20.30;99.90
9965;DHT22;5023;53.554;9.964;2023-07-29T17:46:19;20.00;99.90
9965;DHT22;5023;53.554;9.964;2023-07-29T17:51:22;20.00;99.90
9965;DHT22;5023;53.554;9.964;2023-07-29T17:56:24;19.90;99.90
9965;DHT22;5023;53.554;9.964;2023-07-29T18:01:26;20.00;99.90
9965;DHT22;5023;53.554;9.964;2023-07-29T18:06:30;20.00;99.90
9965;DHT22;5023;53.554;9.964;2023-07-29T18:11:31;20.00;99.90
9965;DHT22;5023;53.554;9.964;2023-07-29T18:16:33;19.90;99.90
9965;DHT22;5023;53.554;9.964;2023-07-29T18:21:39;19.80;99.90
9965;DHT22;5023;53.554;9.964;2023-07-29T18:26:42;19.80;99.90
9965;DHT22;5023;53.554;9.964;2023-07-29T18:31:43;19.70;99.90
9965;DHT22;5023;53.554;9.964;2023-07-29T18:36:47;19.60;99.90
9965;DHT22;5023;53.554;9.964;2023-07-29T18:41:49;19.60;99.90
9965;DHT22;5023;53.554;9.964;2023-07-29T18:46:50;19.50;99.90
9965;DHT22;5023;53.554;9.964;2023-07-29T18:51:54;19.50;99.90
9965;DHT22;5023;53.554;9.964;2023-07-29T18:56:56;19.40;99.90
9965;DHT22;5023;53.554;9.964;2023-07-29T19:01:58;19.40;99.90
9965;DHT22;5023;53.554;9.964;2023-07-29T19:07:01;19.40;99.90
9965;DHT22;5023;53.554;9.964;2023-07-29T19:12:03;19.30;99.90
9965;DHT22;5023;53.554;9.964;2023-07-29T19:17:06;19.30;99.90
9965;DHT22;5023;53.554;9.964;2023-07-29T19:22:09;19.20;99.90
9965;DHT22;5023;53.554;9.964;2023-07-29T19:27:11;19.10;99.90
9965;DHT22;5023;53.554;9.964;2023-07-29T19:32:13;19.10;99.90
9965;DHT22;5023;53.554;9.964;2023-07-29T19:37:16;19.10;99.90
9965;DHT22;5023;53.554;9.964;2023-07-29T19:42:18;19.10;99.90
9965;DHT22;5023;53.554;9.964;2023-07-29T19:47:20;19.10;99.90
9965;DHT22;5023;53.554;9.964;2023-07-29T19:52:23;19.10;99.90
9965;DHT22;5023;53.554;9.964;2023-07-29T19:57:25;19.00;99.90
9965;DHT22;5023;53.554;9.964;2023-07-29T20:02:27;18.90;99.90
9965;DHT22;5023;53.554;9.964;2023-07-29T20:07:33;18.90;99.90
9965;DHT22;5023;53.554;9.964;2023-07-29T20:12:35;18.90;99.90
9965;DHT22;5023;53.554;9.964;2023-07-29T20:17:37;18.90;99.90
9965;DHT22;5023;53.554;9.964;2023-07-29T20:22:45;18.90;99.90
9965;DHT22;5023;53.554;9.964;2023-07-29T20:27:47;18.80;99.90
9965;DHT22;5023;53.554;9.964;2023-07-29T20:32:49;18.80;99.90
9965;DHT22;5023;53.554;9.964;2023-07-29T20:37:53;18.80;99.90
9965;DHT22;5023;53.554;9.964;2023-07-29T20:42:54;18.80;99.90
9965;DHT22;5023;53.554;9.964;2023-07-29T20:47:56;18.80;99.90
9965;DHT22;5023;53.554;9.964;2023-07-29T20:53:00;18.70;99.90
9965;DHT22;5023;53.554;9.964;2023-07-29T20:58:02;18.70;99.90
9965;DHT22;5023;53.554;9.964;2023-07-29T21:03:04;18.70;99.90
9965;DHT22;5023;53.554;9.964;2023-07-29T21:08:07;18.70;99.90
9965;DHT22;5023;53.554;9.964;2023-07-29T21:13:09;18.80;99.90
9965;DHT22;5023;53.554;9.964;2023-07-29T21:18:11;18.60;99.90
9965;DHT22;5023;53.554;9.964;2023-07-29T21:23:14;18.60;99.90
9965;DHT22;5023;53.554;9.964;2023-07-29T21:28:17;18.60;99.90
9965;DHT22;5023;53.554;9.964;2023-07-29T21:33:19;18.60;99.90
9965;DHT22;5023;53.554;9.964;2023-07-29T21:38:22;18.60;99.90
9965;DHT22;5023;53.554;9.964;2023-07-29T21:43:24;18.50;99.90
9965;DHT22;5023;53.554;9.964;2023-07-29T21:48:26;18.60;99.90
9965;DHT22;5023;53.554;9.964;2023-07-29T21:53:29;18.50;99.90
9965;DHT22;5023;53.554;9.964;2023-07-29T21:58:31;18.50;99.90
9965;DHT22;5023;53.554;9.964;2023-07-29T22:03:33;18.60;99.90
9965;DHT22;5023;53.554;9.964;2023-07-29T22:08:37;18.60;99.90
9965;DHT22;5023;53.554;9.964;2023-07-29T22:13:39;18.50;99.90
9965;DHT22;5023;53.554;9.964;2023-07-29T22:18:40;18.50;99.90
9965;DHT22;5023;53.554;9.964;2023-07-29T22:23:44;18.40;99.90
9965;DHT22;5023;53.554;9.964;2023-07-29T22:28:46;18.30;99.90
9965;DHT22;5023;53.554;9.964;2023-07-29T22:33:48;18.40;99.90
9965;DHT22;5023;53.554;9.964;2023-07-29T22:38:51;18.40;99.90
9965;DHT22;5023;53.554;9.964;2023-07-29T22:43:53;18.40;99.90
9965;DHT22;5023;53.554;9.964;2023-07-29T22:48:55;18.30;99.90
9965;DHT22;5023;53.554;9.964;2023-07-29T22:53:58;18.30;99.90
9965;DHT22;5023;53.554;9.964;2023-07-29T22:59:00;18.30;99.90
9965;DHT22;5023;53.554;9.964;2023-07-29T23:04:02;18.40;99.90
9965;DHT22;5023;53.554;9.964;2023-07-29T23:09:05;18.40;99.90
9965;DHT22;5023;53.554;9.964;2023-07-29T23:14:07;18.40;99.90
9965;DHT22;5023;53.554;9.964;2023-07-29T23:19:09;18.40;99.90
9965;DHT22;5023;53.554;9.964;2023-07-29T23:24:12;18.40;99.90
9965;DHT22;5023;53.554;9.964;2023-07-29T23:29:14;18.40;99.90
9965;DHT22;5023;53.554;9.964;2023-07-29T23:34:16;18.40;99.90
9965;DHT22;5023;53.554;9.964;2023-07-29T23:39:19;18.30;99.90
9965;DHT22;5023;53.554;9.964;2023-07-29T23:44:21;18.30;99.90
9965;DHT22;5023;53.554;9.964;2023-07-29T23:49:23;18.30;99.90
9965;DHT22;5023;53.554;9.964;2023-07-29T23:54:27;18.30;99.90
9965;DHT22;5023;53.554;9.964;2023-07-29T23:59:28;18.30;99.90
